Terminal Aerodrome Forecast
Issued by NWS

Home | Current Version | Previous Version | Text Only | Print | Product List | Glossary On
Versions: 1 2 3 4 5 6 7 8 9 10 11 12 13 14 15 16 17 18 19 20
000
FTUS43 KSGF 072300
TAFJLN
TAF
KJLN 072320Z 0800/0824 03006KT 4SM -RA BR OVC007
      TEMPO 0800/0804 2SM BR OVC004
     FM080900 09009KT 4SM -SHRA BR OVC009
      TEMPO 0811/0815 1SM SHRA BR OVC009
     FM081500 23011KT 4SM -SHRA BR BKN009 OVC020=

USA.gov is the U.S. government's official web portal to all federal, state and local government web resources and services.